sensor_id;sensor_type;location;lat;lon;timestamp;pressure;altitude;pressure_sealevel;temperature;humidity
43488;BME280;29078;41.932;25.554;2022-11-03T00:01:59;99903.66;;;14.27;43.12
43488;BME280;29078;41.932;25.554;2022-11-03T00:04:24;99840.56;;;13.80;43.08
43488;BME280;29078;41.932;25.554;2022-11-03T00:06:51;99906.88;;;14.23;43.14
43488;BME280;29078;41.932;25.554;2022-11-03T00:09:19;99794.16;;;13.48;43.09
43488;BME280;29078;41.932;25.554;2022-11-03T00:11:46;99911.75;;;14.19;43.00
43488;BME280;29078;41.932;25.554;2022-11-03T00:14:12;99864.25;;;13.82;43.31
43488;BME280;29078;41.932;25.554;2022-11-03T00:16:41;99906.44;;;14.19;42.95
43488;BME280;29078;41.932;25.554;2022-11-03T00:19:08;99905.63;;;14.19;43.06
43488;BME280;29078;41.932;25.554;2022-11-03T00:21:34;99823.66;;;13.60;43.07
43488;BME280;29078;41.932;25.554;2022-11-03T00:24:00;99911.56;;;14.21;42.80
43488;BME280;29078;41.932;25.554;2022-11-03T00:26:31;99901.97;;;14.20;43.06
43488;BME280;29078;41.932;25.554;2022-11-03T00:29:01;99898.47;;;14.19;43.06
43488;BME280;29078;41.932;25.554;2022-11-03T00:31:29;99911.75;;;14.19;42.95
43488;BME280;29078;41.932;25.554;2022-11-03T00:33:55;99910.38;;;14.23;43.03
43488;BME280;29078;41.932;25.554;2022-11-03T00:36:23;99910.38;;;14.23;42.97
43488;BME280;29078;41.932;25.554;2022-11-03T00:38:49;99912.97;;;14.17;43.03
43488;BME280;29078;41.932;25.554;2022-11-03T00:41:15;99864.53;;;13.93;42.92
43488;BME280;29078;41.932;25.554;2022-11-03T00:43:41;99863.47;;;13.88;43.04
43488;BME280;29078;41.932;25.554;2022-11-03T00:46:07;99796.44;;;13.51;42.85
43488;BME280;29078;41.932;25.554;2022-11-03T00:48:34;99889.38;;;14.07;42.95
43488;BME280;29078;41.932;25.554;2022-11-03T00:51:11;99908.88;;;14.14;42.86
43488;BME280;29078;41.932;25.554;2022-11-03T00:53:42;99825.16;;;13.69;42.97
43488;BME280;29078;41.932;25.554;2022-11-03T00:56:22;99892.53;;;13.96;42.80
43488;BME280;29078;41.932;25.554;2022-11-03T00:58:48;99919.00;;;14.11;43.39
43488;BME280;29078;41.932;25.554;2022-11-03T01:01:19;99908.03;;;14.14;43.09
43488;BME280;29078;41.932;25.554;2022-11-03T01:03:47;99862.84;;;13.86;43.00
43488;BME280;29078;41.932;25.554;2022-11-03T01:06:33;99884.81;;;14.01;43.25
43488;BME280;29078;41.932;25.554;2022-11-03T01:09:32;99896.75;;;14.12;43.11
43488;BME280;29078;41.932;25.554;2022-11-03T01:12:13;99854.41;;;13.76;43.28
43488;BME280;29078;41.932;25.554;2022-11-03T01:17:23;99899.56;;;14.04;43.43
43488;BME280;29078;41.932;25.554;2022-11-03T01:19:50;99837.78;;;13.67;43.16
43488;BME280;29078;41.932;25.554;2022-11-03T01:22:16;99785.84;;;13.36;43.17
43488;BME280;29078;41.932;25.554;2022-11-03T01:24:42;99922.06;;;14.08;43.63
43488;BME280;29078;41.932;25.554;2022-11-03T01:27:09;99849.22;;;13.67;43.17
43488;BME280;29078;41.932;25.554;2022-11-03T01:29:35;99849.53;;;13.58;43.33
43488;BME280;29078;41.932;25.554;2022-11-03T01:32:00;99769.41;;;13.05;43.36
43488;BME280;29078;41.932;25.554;2022-11-03T01:34:26;99810.72;;;13.35;43.62
43488;BME280;29078;41.932;25.554;2022-11-03T01:36:51;99811.56;;;13.36;43.44
43488;BME280;29078;41.932;25.554;2022-11-03T01:39:18;99861.28;;;13.70;43.42
43488;BME280;29078;41.932;25.554;2022-11-03T01:41:46;99899.44;;;13.90;43.10
43488;BME280;29078;41.932;25.554;2022-11-03T01:46:43;99877.28;;;13.55;43.33
43488;BME280;29078;41.932;25.554;2022-11-03T01:49:15;99840.19;;;13.41;43.44
43488;BME280;29078;41.932;25.554;2022-11-03T01:51:42;99913.28;;;13.64;43.22
43488;BME280;29078;41.932;25.554;2022-11-03T01:54:12;99813.28;;;13.08;43.17
43488;BME280;29078;41.932;25.554;2022-11-03T01:56:42;99850.19;;;13.24;43.63
43488;BME280;29078;41.932;25.554;2022-11-03T01:59:12;99562.69;;;11.54;43.60
43488;BME280;29078;41.932;25.554;2022-11-03T02:01:38;99758.34;;;12.80;43.54
43488;BME280;29078;41.932;25.554;2022-11-03T02:04:08;99823.28;;;13.27;43.49
43488;BME280;29078;41.932;25.554;2022-11-03T02:06:35;99856.81;;;13.49;43.14
43488;BME280;29078;41.932;25.554;2022-11-03T02:09:06;99806.38;;;13.28;43.41
43488;BME280;29078;41.932;25.554;2022-11-03T02:11:33;99883.66;;;13.82;43.09
43488;BME280;29078;41.932;25.554;2022-11-03T02:14:17;99831.53;;;13.53;43.03
43488;BME280;29078;41.932;25.554;2022-11-03T02:16:48;99925.34;;;14.10;43.05
43488;BME280;29078;41.932;25.554;2022-11-03T02:22:32;99654.56;;;12.40;43.21
43488;BME280;29078;41.932;25.554;2022-11-03T02:27:55;99866.28;;;13.80;43.18
43488;BME280;29078;41.932;25.554;2022-11-03T02:30:20;99865.34;;;13.66;43.37
43488;BME280;29078;41.932;25.554;2022-11-03T02:32:54;99931.28;;;14.12;43.05
43488;BME280;29078;41.932;25.554;2022-11-03T02:35:35;99898.38;;;13.85;43.08
43488;BME280;29078;41.932;25.554;2022-11-03T02:38:05;99935.41;;;14.14;43.13
43488;BME280;29078;41.932;25.554;2022-11-03T02:40:37;99832.38;;;13.54;42.74
43488;BME280;29078;41.932;25.554;2022-11-03T02:43:04;99903.75;;;13.91;43.10
43488;BME280;29078;41.932;25.554;2022-11-03T02:45:32;99839.00;;;13.43;43.20
43488;BME280;29078;41.932;25.554;2022-11-03T02:48:00;99932.16;;;13.97;43.09
43488;BME280;29078;41.932;25.554;2022-11-03T02:50:29;99953.69;;;14.24;43.05
43488;BME280;29078;41.932;25.554;2022-11-03T02:52:55;99934.78;;;14.12;43.18
43488;BME280;29078;41.932;25.554;2022-11-03T02:55:37;99949.63;;;14.28;43.38
43488;BME280;29078;41.932;25.554;2022-11-03T03:01:13;99899.50;;;13.97;43.09
43488;BME280;29078;41.932;25.554;2022-11-03T03:03:48;99932.38;;;14.17;43.29
43488;BME280;29078;41.932;25.554;2022-11-03T03:06:18;99900.75;;;14.01;43.14
43488;BME280;29078;41.932;25.554;2022-11-03T03:08:48;99966.69;;;14.40;43.09
43488;BME280;29078;41.932;25.554;2022-11-03T03:11:15;99966.19;;;14.51;43.42
43488;BME280;29078;41.932;25.554;2022-11-03T03:13:41;99846.25;;;13.77;43.44
43488;BME280;29078;41.932;25.554;2022-11-03T03:19:00;99846.72;;;13.87;43.39
43488;BME280;29078;41.932;25.554;2022-11-03T03:21:33;99962.56;;;14.59;43.54
43488;BME280;29078;41.932;25.554;2022-11-03T03:24:08;99951.97;;;14.66;43.55
43488;BME280;29078;41.932;25.554;2022-11-03T03:26:40;99928.03;;;14.38;43.60
43488;BME280;29078;41.932;25.554;2022-11-03T03:29:33;99954.44;;;14.67;43.91
43488;BME280;29078;41.932;25.554;2022-11-03T03:32:05;99927.72;;;14.47;43.87
43488;BME280;29078;41.932;25.554;2022-11-03T03:34:32;99649.66;;;12.73;44.08
43488;BME280;29078;41.932;25.554;2022-11-03T03:36:58;99883.81;;;14.23;44.14
43488;BME280;29078;41.932;25.554;2022-11-03T03:39:28;99848.03;;;13.98;44.46
43488;BME280;29078;41.932;25.554;2022-11-03T03:41:57;99909.25;;;14.39;44.49
43488;BME280;29078;41.932;25.554;2022-11-03T03:44:24;99866.91;;;14.10;44.34
43488;BME280;29078;41.932;25.554;2022-11-03T03:46:56;99908.78;;;14.29;44.52
43488;BME280;29078;41.932;25.554;2022-11-03T03:49:23;99811.75;;;13.77;44.62
43488;BME280;29078;41.932;25.554;2022-11-03T03:51:49;99919.13;;;14.45;44.62
43488;BME280;29078;41.932;25.554;2022-11-03T03:54:15;99915.16;;;14.35;44.83
43488;BME280;29078;41.932;25.554;2022-11-03T03:56:55;99969.47;;;14.81;44.57
43488;BME280;29078;41.932;25.554;2022-11-03T03:59:21;99940.94;;;14.69;44.63
43488;BME280;29078;41.932;25.554;2022-11-03T04:01:47;99902.56;;;14.43;44.53
43488;BME280;29078;41.932;25.554;2022-11-03T04:04:12;99875.31;;;14.35;44.57
43488;BME280;29078;41.932;25.554;2022-11-03T04:06:38;99931.69;;;14.58;44.76
43488;BME280;29078;41.932;25.554;2022-11-03T04:09:03;99925.56;;;14.57;44.79
43488;BME280;29078;41.932;25.554;2022-11-03T04:11:28;99863.75;;;14.21;44.84
43488;BME280;29078;41.932;25.554;2022-11-03T04:14:12;99979.91;;;14.83;44.74
43488;BME280;29078;41.932;25.554;2022-11-03T04:16:56;99945.84;;;14.65;44.74
43488;BME280;29078;41.932;25.554;2022-11-03T04:19:40;99954.69;;;14.72;44.95
43488;BME280;29078;41.932;25.554;2022-11-03T04:22:29;99942.94;;;14.60;44.54
43488;BME280;29078;41.932;25.554;2022-11-03T04:24:57;99986.84;;;14.84;44.37
43488;BME280;29078;41.932;25.554;2022-11-03T04:27:33;99931.88;;;14.56;44.56
43488;BME280;29078;41.932;25.554;2022-11-03T04:32:35;99984.28;;;14.90;44.46
43488;BME280;29078;41.932;25.554;2022-11-03T04:35:08;99944.19;;;14.64;44.59
43488;BME280;29078;41.932;25.554;2022-11-03T04:37:37;99919.53;;;14.42;44.57
43488;BME280;29078;41.932;25.554;2022-11-03T04:40:12;99939.09;;;14.41;44.67
43488;BME280;29078;41.932;25.554;2022-11-03T04:42:38;99944.59;;;14.61;44.60
43488;BME280;29078;41.932;25.554;2022-11-03T04:45:13;99875.78;;;14.17;44.84
43488;BME280;29078;41.932;25.554;2022-11-03T04:47:38;99904.47;;;14.28;44.77
43488;BME280;29078;41.932;25.554;2022-11-03T04:50:12;100005.84;;;14.81;44.53
43488;BME280;29078;41.932;25.554;2022-11-03T04:52:39;99897.28;;;14.00;44.41
43488;BME280;29078;41.932;25.554;2022-11-03T04:55:07;99976.69;;;14.38;44.33
43488;BME280;29078;41.932;25.554;2022-11-03T04:57:34;99958.56;;;14.20;44.39
43488;BME280;29078;41.932;25.554;2022-11-03T04:59:59;99925.16;;;14.11;44.30
43488;BME280;29078;41.932;25.554;2022-11-03T05:02:25;99921.03;;;14.09;44.26
43488;BME280;29078;41.932;25.554;2022-11-03T05:04:50;99957.66;;;14.35;44.35
43488;BME280;29078;41.932;25.554;2022-11-03T05:07:32;99966.44;;;14.35;44.11
43488;BME280;29078;41.932;25.554;2022-11-03T05:09:59;99984.78;;;14.51;44.04
43488;BME280;29078;41.932;25.554;2022-11-03T05:12:25;100037.50;;;14.76;44.65
43488;BME280;29078;41.932;25.554;2022-11-03T05:14:51;99972.00;;;14.40;44.30
43488;BME280;29078;41.932;25.554;2022-11-03T05:17:25;100037.66;;;14.68;44.42
43488;BME280;29078;41.932;25.554;2022-11-03T05:19:56;100050.50;;;14.64;44.56
43488;BME280;29078;41.932;25.554;2022-11-03T05:22:24;100020.09;;;14.45;44.75
43488;BME280;29078;41.932;25.554;2022-11-03T05:24:56;99929.28;;;13.92;44.81
43488;BME280;29078;41.932;25.554;2022-11-03T05:27:22;99948.09;;;13.97;44.58
43488;BME280;29078;41.932;25.554;2022-11-03T05:29:49;99976.78;;;14.09;44.91
43488;BME280;29078;41.932;25.554;2022-11-03T05:32:21;100030.53;;;14.47;44.94
43488;BME280;29078;41.932;25.554;2022-11-03T05:34:51;100002.75;;;14.28;44.95
43488;BME280;29078;41.932;25.554;2022-11-03T05:39:49;99987.22;;;14.10;45.15
43488;BME280;29078;41.932;25.554;2022-11-03T05:42:36;100004.16;;;14.09;45.22
43488;BME280;29078;41.932;25.554;2022-11-03T05:45:11;100086.69;;;14.65;45.30
43488;BME280;29078;41.932;25.554;2022-11-03T05:47:40;100029.81;;;14.17;44.95
43488;BME280;29078;41.932;25.554;2022-11-03T05:50:15;99966.13;;;14.02;45.00
43488;BME280;29078;41.932;25.554;2022-11-03T05:52:42;100057.47;;;14.65;45.13
43488;BME280;29078;41.932;25.554;2022-11-03T05:55:30;100051.06;;;14.59;45.03
43488;BME280;29078;41.932;25.554;2022-11-03T05:57:58;100033.38;;;14.45;44.90
43488;BME280;29078;41.932;25.554;2022-11-03T06:02:54;100059.31;;;14.43;44.98
43488;BME280;29078;41.932;25.554;2022-11-03T06:05:22;100064.03;;;14.69;45.11
43488;BME280;29078;41.932;25.554;2022-11-03T06:07:48;100094.84;;;14.85;45.03
43488;BME280;29078;41.932;25.554;2022-11-03T06:10:33;100102.19;;;14.83;45.39
43488;BME280;29078;41.932;25.554;2022-11-03T06:13:27;100062.16;;;14.63;45.01
43488;BME280;29078;41.932;25.554;2022-11-03T06:16:01;100105.47;;;14.85;44.88
43488;BME280;29078;41.932;25.554;2022-11-03T06:18:33;100098.97;;;14.87;45.01
43488;BME280;29078;41.932;25.554;2022-11-03T06:21:05;100012.56;;;14.27;45.02
43488;BME280;29078;41.932;25.554;2022-11-03T06:23:33;100106.63;;;14.97;44.69
43488;BME280;29078;41.932;25.554;2022-11-03T06:26:00;100012.66;;;14.41;44.41
43488;BME280;29078;41.932;25.554;2022-11-03T06:28:35;100111.16;;;15.03;44.64
43488;BME280;29078;41.932;25.554;2022-11-03T06:31:05;100095.16;;;14.97;44.35
43488;BME280;29078;41.932;25.554;2022-11-03T06:33:37;100108.91;;;15.00;44.61
43488;BME280;29078;41.932;25.554;2022-11-03T06:36:12;100117.50;;;15.02;44.45
43488;BME280;29078;41.932;25.554;2022-11-03T06:38:40;100071.25;;;14.75;44.34
43488;BME280;29078;41.932;25.554;2022-11-03T06:41:16;100003.56;;;14.28;44.22
43488;BME280;29078;41.932;25.554;2022-11-03T06:43:43;99998.63;;;14.25;44.43
43488;BME280;29078;41.932;25.554;2022-11-03T06:46:23;100133.91;;;15.06;43.96
43488;BME280;29078;41.932;25.554;2022-11-03T06:48:51;100088.16;;;14.68;44.20
43488;BME280;29078;41.932;25.554;2022-11-03T06:51:23;100085.34;;;14.76;44.21
43488;BME280;29078;41.932;25.554;2022-11-03T06:53:51;100125.38;;;14.89;44.06
43488;BME280;29078;41.932;25.554;2022-11-03T06:56:22;100145.59;;;15.11;44.10
43488;BME280;29078;41.932;25.554;2022-11-03T06:58:51;100072.19;;;14.68;44.14
43488;BME280;29078;41.932;25.554;2022-11-03T07:01:22;100151.16;;;15.16;44.11
43488;BME280;29078;41.932;25.554;2022-11-03T07:03:51;99983.84;;;14.16;43.83
43488;BME280;29078;41.932;25.554;2022-11-03T07:06:22;100149.75;;;15.20;44.02
43488;BME280;29078;41.932;25.554;2022-11-03T07:08:55;100112.38;;;15.01;43.87
43488;BME280;29078;41.932;25.554;2022-11-03T07:11:23;100154.31;;;15.26;43.84
43488;BME280;29078;41.932;25.554;2022-11-03T07:13:51;100106.19;;;14.93;44.08
43488;BME280;29078;41.932;25.554;2022-11-03T07:16:34;99995.41;;;14.30;43.68
43488;BME280;29078;41.932;25.554;2022-11-03T07:19:10;100057.28;;;14.67;43.54
43488;BME280;29078;41.932;25.554;2022-11-03T07:21:50;100096.94;;;14.89;44.19
43488;BME280;29078;41.932;25.554;2022-11-03T07:24:18;100155.56;;;15.31;44.10
43488;BME280;29078;41.932;25.554;2022-11-03T07:26:44;100158.03;;;15.32;44.22
43488;BME280;29078;41.932;25.554;2022-11-03T07:29:20;100163.16;;;15.34;44.34
43488;BME280;29078;41.932;25.554;2022-11-03T07:31:48;100049.34;;;14.73;44.03
43488;BME280;29078;41.932;25.554;2022-11-03T07:34:20;100173.91;;;15.47;44.18
43488;BME280;29078;41.932;25.554;2022-11-03T07:36:46;100110.50;;;15.22;43.86
43488;BME280;29078;41.932;25.554;2022-11-03T07:39:15;100147.53;;;15.52;43.92
43488;BME280;29078;41.932;25.554;2022-11-03T07:41:42;100091.91;;;15.29;43.88
43488;BME280;29078;41.932;25.554;2022-11-03T07:44:13;100120.28;;;15.50;43.14
43488;BME280;29078;41.932;25.554;2022-11-03T07:46:41;100137.22;;;15.64;43.36
43488;BME280;29078;41.932;25.554;2022-11-03T07:49:29;100171.50;;;15.80;43.24
43488;BME280;29078;41.932;25.554;2022-11-03T07:51:58;100147.56;;;15.86;43.19
43488;BME280;29078;41.932;25.554;2022-11-03T07:54:32;100150.06;;;15.95;42.95
43488;BME280;29078;41.932;25.554;2022-11-03T07:57:20;100155.03;;;16.04;42.96
43488;BME280;29078;41.932;25.554;2022-11-03T07:59:49;100056.84;;;15.53;43.00
43488;BME280;29078;41.932;25.554;2022-11-03T08:02:33;100066.81;;;15.73;42.59
43488;BME280;29078;41.932;25.554;2022-11-03T08:05:01;100149.84;;;16.37;42.54
43488;BME280;29078;41.932;25.554;2022-11-03T08:07:26;100099.91;;;16.05;42.42
43488;BME280;29078;41.932;25.554;2022-11-03T08:09:52;100138.81;;;16.53;42.49
43488;BME280;29078;41.932;25.554;2022-11-03T08:12:18;100058.75;;;16.14;42.37
43488;BME280;29078;41.932;25.554;2022-11-03T08:14:44;99993.72;;;15.82;42.15
43488;BME280;29078;41.932;25.554;2022-11-03T08:17:09;100048.31;;;16.19;42.23
43488;BME280;29078;41.932;25.554;2022-11-03T08:19:35;100061.22;;;16.22;42.40
43488;BME280;29078;41.932;25.554;2022-11-03T08:22:00;100089.78;;;16.41;42.42
43488;BME280;29078;41.932;25.554;2022-11-03T08:24:25;100108.88;;;16.58;42.51
43488;BME280;29078;41.932;25.554;2022-11-03T08:26:51;100158.78;;;16.84;42.29
43488;BME280;29078;41.932;25.554;2022-11-03T08:29:16;100088.16;;;16.47;42.11
43488;BME280;29078;41.932;25.554;2022-11-03T08:31:42;100027.81;;;16.19;42.16
43488;BME280;29078;41.932;25.554;2022-11-03T08:34:08;100039.44;;;15.99;42.36
43488;BME280;29078;41.932;25.554;2022-11-03T08:36:34;100047.75;;;16.37;42.06
43488;BME280;29078;41.932;25.554;2022-11-03T08:38:59;100048.16;;;16.47;42.10
43488;BME280;29078;41.932;25.554;2022-11-03T08:41:25;100006.53;;;16.39;41.95
43488;BME280;29078;41.932;25.554;2022-11-03T08:43:50;100068.72;;;16.79;42.07
43488;BME280;29078;41.932;25.554;2022-11-03T08:46:15;100057.22;;;16.66;41.94
43488;BME280;29078;41.932;25.554;2022-11-03T08:48:41;100064.00;;;16.75;42.00
43488;BME280;29078;41.932;25.554;2022-11-03T08:51:06;100091.06;;;16.78;42.09
43488;BME280;29078;41.932;25.554;2022-11-03T08:53:37;100060.50;;;16.88;41.93
43488;BME280;29078;41.932;25.554;2022-11-03T08:56:03;99933.34;;;16.22;41.76
43488;BME280;29078;41.932;25.554;2022-11-03T08:58:30;100157.34;;;17.67;41.58
43488;BME280;29078;41.932;25.554;2022-11-03T09:00:56;100158.16;;;17.74;41.46
43488;BME280;29078;41.932;25.554;2022-11-03T09:03:21;100085.72;;;17.38;41.38
43488;BME280;29078;41.932;25.554;2022-11-03T09:05:47;100152.59;;;17.89;41.16
43488;BME280;29078;41.932;25.554;2022-11-03T09:08:12;100093.03;;;17.62;40.92
43488;BME280;29078;41.932;25.554;2022-11-03T09:10:38;100110.88;;;17.88;40.54
43488;BME280;29078;41.932;25.554;2022-11-03T09:13:03;100080.06;;;17.86;40.64
43488;BME280;29078;41.932;25.554;2022-11-03T09:15:29;100109.94;;;18.14;40.62
43488;BME280;29078;41.932;25.554;2022-11-03T09:17:55;100146.44;;;18.33;40.31
43488;BME280;29078;41.932;25.554;2022-11-03T09:20:21;100126.44;;;18.42;40.49
43488;BME280;29078;41.932;25.554;2022-11-03T09:22:46;100026.41;;;17.87;40.38
43488;BME280;29078;41.932;25.554;2022-11-03T09:25:12;100044.97;;;18.14;40.03
43488;BME280;29078;41.932;25.554;2022-11-03T09:27:37;100127.97;;;18.70;39.79
43488;BME280;29078;41.932;25.554;2022-11-03T09:30:03;100125.63;;;18.80;39.84
43488;BME280;29078;41.932;25.554;2022-11-03T09:32:29;100124.91;;;18.91;39.54
43488;BME280;29078;41.932;25.554;2022-11-03T09:34:55;100055.78;;;18.57;39.11
43488;BME280;29078;41.932;25.554;2022-11-03T09:37:20;100092.69;;;18.80;39.16
43488;BME280;29078;41.932;25.554;2022-11-03T09:39:47;100000.81;;;18.36;39.16
43488;BME280;29078;41.932;25.554;2022-11-03T09:42:12;100095.63;;;18.96;38.72
43488;BME280;29078;41.932;25.554;2022-11-03T09:44:39;100054.38;;;18.86;38.51
43488;BME280;29078;41.932;25.554;2022-11-03T09:47:05;100099.19;;;19.15;38.48
43488;BME280;29078;41.932;25.554;2022-11-03T09:49:32;100105.00;;;19.30;38.31
43488;BME280;29078;41.932;25.554;2022-11-03T09:52:00;99874.09;;;17.94;38.18
43488;BME280;29078;41.932;25.554;2022-11-03T09:54:26;100008.56;;;18.76;38.07
43488;BME280;29078;41.932;25.554;2022-11-03T09:56:52;100018.09;;;18.90;37.96
43488;BME280;29078;41.932;25.554;2022-11-03T09:59:20;100099.78;;;19.60;37.79
43488;BME280;29078;41.932;25.554;2022-11-03T10:01:47;100024.31;;;19.27;37.53
43488;BME280;29078;41.932;25.554;2022-11-03T10:04:25;100007.38;;;19.33;37.36
43488;BME280;29078;41.932;25.554;2022-11-03T10:06:53;100042.19;;;19.51;37.22
43488;BME280;29078;41.932;25.554;2022-11-03T10:09:20;100094.72;;;19.89;38.09
43488;BME280;29078;41.932;25.554;2022-11-03T10:11:48;99957.38;;;19.09;37.68
43488;BME280;29078;41.932;25.554;2022-11-03T10:14:16;100062.88;;;19.81;37.55
43488;BME280;29078;41.932;25.554;2022-11-03T10:16:51;100086.06;;;20.05;37.19
43488;BME280;29078;41.932;25.554;2022-11-03T10:19:17;100003.72;;;19.64;36.91
43488;BME280;29078;41.932;25.554;2022-11-03T10:21:43;100068.63;;;20.14;36.33
43488;BME280;29078;41.932;25.554;2022-11-03T10:24:11;100076.72;;;20.26;36.32
43488;BME280;29078;41.932;25.554;2022-11-03T10:29:21;100054.66;;;20.42;36.00
43488;BME280;29078;41.932;25.554;2022-11-03T10:31:49;100053.13;;;20.46;35.78
43488;BME280;29078;41.932;25.554;2022-11-03T10:34:44;100013.78;;;20.28;35.35
43488;BME280;29078;41.932;25.554;2022-11-03T10:37:18;100046.97;;;20.57;35.33
43488;BME280;29078;41.932;25.554;2022-11-03T10:39:48;100039.88;;;20.63;35.29
43488;BME280;29078;41.932;25.554;2022-11-03T10:42:25;100045.13;;;20.70;35.43
43488;BME280;29078;41.932;25.554;2022-11-03T10:44:54;100041.63;;;20.69;35.24
43488;BME280;29078;41.932;25.554;2022-11-03T10:47:24;100031.81;;;20.75;35.47
43488;BME280;29078;41.932;25.554;2022-11-03T10:49:50;99995.16;;;20.45;35.44
43488;BME280;29078;41.932;25.554;2022-11-03T10:52:24;99950.00;;;20.30;35.46
43488;BME280;29078;41.932;25.554;2022-11-03T10:54:51;99962.47;;;20.37;35.49
43488;BME280;29078;41.932;25.554;2022-11-03T10:57:18;100010.94;;;20.65;35.48
43488;BME280;29078;41.932;25.554;2022-11-03T10:59:46;99950.69;;;20.26;35.55
43488;BME280;29078;41.932;25.554;2022-11-03T11:02:21;100020.63;;;20.66;35.38
43488;BME280;29078;41.932;25.554;2022-11-03T11:04:53;99944.50;;;20.25;35.30
43488;BME280;29078;41.932;25.554;2022-11-03T11:07:23;99994.94;;;20.58;35.53
43488;BME280;29078;41.932;25.554;2022-11-03T11:09:51;99990.63;;;20.57;35.41
43488;BME280;29078;41.932;25.554;2022-11-03T11:12:21;99993.66;;;20.61;35.61
43488;BME280;29078;41.932;25.554;2022-11-03T11:14:57;99878.72;;;19.99;35.27
43488;BME280;29078;41.932;25.554;2022-11-03T11:20:28;99973.03;;;20.61;35.36
43488;BME280;29078;41.932;25.554;2022-11-03T11:22:54;99907.91;;;20.19;35.26
43488;BME280;29078;41.932;25.554;2022-11-03T11:25:20;99944.22;;;20.45;35.45
43488;BME280;29078;41.932;25.554;2022-11-03T11:41:04;99923.75;;;20.33;35.64
43488;BME280;29078;41.932;25.554;2022-11-03T11:43:30;99901.16;;;20.28;35.40
43488;BME280;29078;41.932;25.554;2022-11-03T11:48:50;99873.38;;;20.11;35.25
43488;BME280;29078;41.932;25.554;2022-11-03T11:51:25;99851.78;;;20.06;35.19
43488;BME280;29078;41.932;25.554;2022-11-03T11:53:51;99852.50;;;20.02;35.39
43488;BME280;29078;41.932;25.554;2022-11-03T11:56:17;99932.66;;;20.56;35.53
43488;BME280;29078;41.932;25.554;2022-11-03T11:58:49;99928.34;;;20.67;35.56
43488;BME280;29078;41.932;25.554;2022-11-03T12:01:29;99925.19;;;20.70;35.53
43488;BME280;29078;41.932;25.554;2022-11-03T12:04:01;99871.06;;;20.38;35.27
43488;BME280;29078;41.932;25.554;2022-11-03T12:06:38;99916.66;;;20.73;35.33
43488;BME280;29078;41.932;25.554;2022-11-03T12:09:16;99918.88;;;20.76;35.32
43488;BME280;29078;41.932;25.554;2022-11-03T12:11:49;99905.00;;;20.79;35.32
43488;BME280;29078;41.932;25.554;2022-11-03T12:16:53;99844.16;;;20.45;35.21
43488;BME280;29078;41.932;25.554;2022-11-03T12:21:59;99695.78;;;19.69;34.73
43488;BME280;29078;41.932;25.554;2022-11-03T12:27:01;99899.13;;;21.06;34.53
43488;BME280;29078;41.932;25.554;2022-11-03T12:29:27;99891.88;;;21.06;34.53
43488;BME280;29078;41.932;25.554;2022-11-03T12:31:52;99866.59;;;20.90;34.50
43488;BME280;29078;41.932;25.554;2022-11-03T12:34:18;99770.91;;;20.33;34.11
43488;BME280;29078;41.932;25.554;2022-11-03T12:36:44;99722.78;;;20.03;34.22
43488;BME280;29078;41.932;25.554;2022-11-03T12:39:09;99878.81;;;21.10;33.96
43488;BME280;29078;41.932;25.554;2022-11-03T12:41:35;99805.38;;;20.64;33.98
43488;BME280;29078;41.932;25.554;2022-11-03T12:44:01;99767.53;;;20.49;33.92
43488;BME280;29078;41.932;25.554;2022-11-03T12:46:26;99812.34;;;20.77;33.66
43488;BME280;29078;41.932;25.554;2022-11-03T12:48:52;99852.53;;;21.12;33.44
43488;BME280;29078;41.932;25.554;2022-11-03T12:51:22;99856.84;;;21.13;33.67
43488;BME280;29078;41.932;25.554;2022-11-03T12:53:48;99876.06;;;21.21;33.52
43488;BME280;29078;41.932;25.554;2022-11-03T12:56:15;99823.09;;;20.88;33.73
43488;BME280;29078;41.932;25.554;2022-11-03T12:58:41;99868.63;;;21.23;33.50
43488;BME280;29078;41.932;25.554;2022-11-03T13:01:07;99803.00;;;20.79;33.54
43488;BME280;29078;41.932;25.554;2022-11-03T13:03:33;99869.91;;;21.21;33.73
43488;BME280;29078;41.932;25.554;2022-11-03T13:06:00;99724.75;;;20.30;33.79
43488;BME280;29078;41.932;25.554;2022-11-03T13:08:26;99791.75;;;20.66;34.10
43488;BME280;29078;41.932;25.554;2022-11-03T13:10:52;99859.06;;;21.16;34.10
43488;BME280;29078;41.932;25.554;2022-11-03T13:13:18;99787.31;;;20.59;34.31
43488;BME280;29078;41.932;25.554;2022-11-03T13:15:44;99813.16;;;20.89;34.45
43488;BME280;29078;41.932;25.554;2022-11-03T13:18:09;99792.75;;;20.76;34.32
43488;BME280;29078;41.932;25.554;2022-11-03T13:20:35;99857.53;;;21.20;34.32
43488;BME280;29078;41.932;25.554;2022-11-03T13:23:01;99806.31;;;20.81;34.25
43488;BME280;29078;41.932;25.554;2022-11-03T13:25:27;99822.13;;;20.94;34.54
43488;BME280;29078;41.932;25.554;2022-11-03T13:27:53;99857.28;;;21.21;34.17
43488;BME280;29078;41.932;25.554;2022-11-03T13:30:20;99766.19;;;20.63;34.25
43488;BME280;29078;41.932;25.554;2022-11-03T13:32:46;99774.72;;;20.60;34.18
43488;BME280;29078;41.932;25.554;2022-11-03T13:35:12;99865.81;;;21.18;34.34
43488;BME280;29078;41.932;25.554;2022-11-03T13:37:38;99808.63;;;20.89;34.08
43488;BME280;29078;41.932;25.554;2022-11-03T13:40:04;99801.84;;;20.87;34.06
43488;BME280;29078;41.932;25.554;2022-11-03T13:42:30;99866.28;;;21.27;34.17
43488;BME280;29078;41.932;25.554;2022-11-03T13:44:55;99871.16;;;21.30;34.22
43488;BME280;29078;41.932;25.554;2022-11-03T13:47:21;99848.56;;;21.14;34.09
43488;BME280;29078;41.932;25.554;2022-11-03T13:49:47;99847.88;;;21.07;34.52
43488;BME280;29078;41.932;25.554;2022-11-03T13:52:17;99866.03;;;21.29;34.34